Terminal Aerodrome Forecast
Issued by NWS

Home | Current Version | Previous Version | Text Only | Print | Product List | Glossary On
Versions: 1 2 3 4 5 6 7 8 9 10 11 12 13 14 15 16 17 18 19
806
FTUS43 KDLH 160530
TAFBRD
TAF
KBRD 160530Z 1606/1706 33009KT P6SM OVC011
     FM161100 08004KT P6SM SCT015
     FM161800 14012G21KT P6SM BKN050
     FM170100 16015G22KT P6SM BKN070=

USA.gov is the U.S. government's official web portal to all federal, state and local government web resources and services.